Time;durP1;ratioP1;P1;durP2;ratioP2;P2;SDS_P1;SDS_P2;PMS_P1;PMS_P2;Temp;Humidity;BMP_temperature;BMP_pressure;BME280_temperature;BME280_humidity;BME280_pressure;Samples;Min_cycle;Max_cycle;Signal;HPM_P1;HPM_P2
2022/09/20 00:01:30;;;;;;;4.37;2.55;;;;;;;11.14;75.67;100818.60;1696506;83;20983;-88
2022/09/20 00:03:58;;;;;;;3.42;2.30;;;;;;;11.11;75.66;100817.64;1696708;83;20995;-88
2022/09/20 00:06:28;;;;;;;4.17;2.67;;;;;;;11.09;75.72;100822.45;1695814;83;21502;-89
2022/09/20 00:08:55;;;;;;;4.70;2.83;;;;;;;11.08;75.75;100821.09;1702170;82;21735;-89
2022/09/20 00:11:24;;;;;;;3.58;2.17;;;;;;;11.05;75.78;100820.58;1696798;83;21042;-89
2022/09/20 00:13:54;;;;;;;3.95;2.47;;;;;;;11.04;75.80;100825.84;1696501;83;20935;-89
2022/09/20 00:16:25;;;;;;;4.65;2.47;;;;;;;11.02;75.82;100814.38;1695939;83;21109;-90
2022/09/20 00:18:56;;;;;;;4.00;2.40;;;;;;;11.01;75.84;100817.84;1693656;83;21141;-90
2022/09/20 00:21:27;;;;;;;5.42;2.70;;;;;;;11.00;75.87;100814.73;1698967;83;22030;-90
2022/09/20 00:24:02;;;;;;;5.28;2.37;;;;;;;11.00;75.92;100810.38;1730222;82;21061;-90
2022/09/20 00:26:28;;;;;;;4.55;2.25;;;;;;;11.00;75.94;100808.15;1667772;83;21085;-89
2022/09/20 00:28:56;;;;;;;4.10;2.35;;;;;;;10.97;75.88;100806.78;1690740;83;21082;-89
2022/09/20 00:31:25;;;;;;;4.55;2.50;;;;;;;10.93;75.85;100808.45;1684851;82;21081;-89
2022/09/20 00:36:44;;;;;;;3.87;2.08;;;;;;;10.88;75.91;100812.27;1704144;82;21140;-89
2022/09/20 00:39:13;;;;;;;4.67;2.83;;;;;;;10.83;75.87;100809.97;1697483;83;22325;-89
2022/09/20 00:41:50;;;;;;;4.20;2.30;;;;;;;10.79;75.86;100806.80;1711962;81;22218;-89
2022/09/20 00:44:52;;;;;;;3.05;2.25;;;;;;;10.76;75.91;100805.83;1659981;84;21179;-90
2022/09/20 00:47:30;;;;;;;3.22;2.25;;;;;;;10.72;75.91;100812.76;1648754;85;22440;-89
2022/09/20 00:50:24;;;;;;;6.00;2.47;;;;;;;10.65;75.94;100814.33;1659445;85;21509;-89
2022/09/20 00:52:58;;;;;;;4.63;2.17;;;;;;;10.61;75.96;100816.86;1630702;85;21060;-90
2022/09/20 00:55:25;;;;;;;4.10;2.90;;;;;;;10.41;76.00;100792.20;1630538;86;21084;-90
2022/09/20 00:57:52;;;;;;;2.37;1.72;;;;;;;10.51;76.12;100813.11;1656832;84;21111;-90
2022/09/20 01:03:32;;;;;;;3.83;2.20;;;;;;;10.44;76.18;100810.72;1657077;84;21099;-90
2022/09/20 01:06:02;;;;;;;2.87;2.10;;;;;;;10.43;76.23;100811.99;1659897;84;21089;-90
2022/09/20 01:08:28;;;;;;;4.47;2.47;;;;;;;10.38;76.26;100816.23;1629698;85;21069;-89
2022/09/20 01:10:55;;;;;;;3.45;1.98;;;;;;;10.33;76.29;100819.19;1650415;86;21470;-88
2022/09/20 01:13:22;;;;;;;5.92;2.33;;;;;;;10.29;76.37;100816.86;1644491;86;21746;-89
2022/09/20 01:15:48;;;;;;;2.98;2.05;;;;;;;10.26;76.43;100811.07;1644962;85;21115;-89
2022/09/20 01:18:15;;;;;;;3.65;1.95;;;;;;;10.25;76.49;100817.63;1645135;86;21672;-89
2022/09/20 01:20:42;;;;;;;3.10;1.90;;;;;;;10.20;76.53;100817.48;1645599;85;21280;-88
2022/09/20 01:23:50;;;;;;;2.60;2.12;;;;;;;10.16;76.57;100822.20;1644985;86;21557;-89
2022/09/20 01:26:39;;;;;;;4.53;2.20;;;;;;;10.07;76.61;100817.56;1646277;85;22584;-89
2022/09/20 01:29:17;;;;;;;2.90;1.80;;;;;;;10.06;76.69;100831.98;1604573;86;21081;-90
2022/09/20 01:31:48;;;;;;;6.55;2.27;;;;;;;10.01;76.82;100832.30;1644912;86;21111;-90
2022/09/20 01:34:34;;;;;;;4.05;2.10;;;;;;;9.96;76.85;100826.01;1645712;86;21176;-87
2022/09/20 01:37:16;;;;;;;4.17;2.05;;;;;;;9.92;76.94;100827.22;1644669;86;21100;-88
2022/09/20 01:39:57;;;;;;;4.15;2.40;;;;;;;9.87;77.00;100831.88;1644734;86;21956;-88
2022/09/20 01:42:29;;;;;;;3.50;1.85;;;;;;;9.83;77.12;100833.96;1649560;84;21076;-88
2022/09/20 01:45:04;;;;;;;3.67;1.87;;;;;;;9.78;77.19;100835.16;1656120;84;21098;-88
2022/09/20 01:47:58;;;;;;;4.70;1.50;;;;;;;9.76;77.32;100834.63;1655752;84;21512;-88
2022/09/20 01:50:39;;;;;;;3.20;1.55;;;;;;;9.73;77.38;100831.48;1700019;83;21415;-88
2022/09/20 01:53:32;;;;;;;2.75;1.80;;;;;;;9.70;77.45;100834.02;1702611;82;21694;-88
2022/09/20 01:56:10;;;;;;;3.08;1.80;;;;;;;9.66;77.54;100829.09;1697921;83;21082;-89
2022/09/20 01:58:58;;;;;;;4.25;1.98;;;;;;;9.61;77.59;100832.02;1651974;83;21508;-88
2022/09/20 02:01:53;;;;;;;2.45;1.77;;;;;;;9.59;77.69;100827.55;1677580;83;21089;-88
2022/09/20 02:04:52;;;;;;;2.37;1.52;;;;;;;9.56;77.77;100820.91;1667050;84;21087;-88
2022/09/20 02:07:27;;;;;;;2.25;1.40;;;;;;;9.52;77.82;100827.80;1675683;83;22276;-88
2022/09/20 02:10:20;;;;;;;3.72;1.80;;;;;;;9.47;77.90;100835.52;1665795;84;21097;-88
2022/09/20 02:12:58;;;;;;;4.33;1.65;;;;;;;9.28;77.97;100801.23;1680950;84;21152;-88
2022/09/20 02:16:05;;;;;;;4.97;1.65;;;;;;;9.43;78.07;100837.59;1644267;84;21091;-89
2022/09/20 02:19:15;;;;;;;5.12;1.60;;;;;;;9.43;78.18;100840.66;1690555;83;21575;-88
2022/09/20 02:22:30;;;;;;;2.83;1.70;;;;;;;9.41;78.21;100847.59;1674929;83;22599;-89
2022/09/20 02:25:14;;;;;;;2.12;1.67;;;;;;;9.39;78.38;100847.55;1661527;84;21609;-90
2022/09/20 02:28:16;;;;;;;3.22;1.77;;;;;;;9.43;78.51;100848.10;1702714;83;21070;-89
2022/09/20 02:31:03;;;;;;;2.20;1.57;;;;;;;9.46;78.53;100847.30;1599083;86;21652;-88
2022/09/20 02:34:10;;;;;;;5.85;1.90;;;;;;;9.47;78.52;100847.78;1702582;83;21070;-87
2022/09/20 02:36:47;;;;;;;4.37;2.10;;;;;;;9.49;78.60;100848.72;1701806;83;21758;-88
2022/09/20 02:39:29;;;;;;;3.33;1.52;;;;;;;9.52;78.69;100851.02;1671155;83;21114;-87
2022/09/20 02:42:10;;;;;;;2.85;1.55;;;;;;;9.56;78.66;100848.06;1660104;84;21485;-89
2022/09/20 02:44:42;;;;;;;4.28;1.47;;;;;;;9.59;78.66;100845.94;1715245;81;21079;-88
2022/09/20 02:47:26;;;;;;;2.80;1.65;;;;;;;9.63;78.69;100852.67;1709494;82;21503;-88
2022/09/20 02:50:18;;;;;;;1.92;1.20;;;;;;;9.70;78.75;100850.70;1710045;83;21794;-88
2022/09/20 02:53:11;;;;;;;1.70;1.25;;;;;;;9.78;78.76;100849.61;1660331;84;21070;-89
2022/09/20 02:56:02;;;;;;;2.30;1.37;;;;;;;9.86;78.71;100852.03;1709741;83;21057;-88
2022/09/20 02:58:49;;;;;;;2.72;1.60;;;;;;;9.92;78.65;100854.83;1646935;84;21122;-88
2022/09/20 03:01:27;;;;;;;3.33;1.52;;;;;;;10.00;78.57;100855.48;1709856;82;21584;-88
2022/09/20 03:04:17;;;;;;;1.87;1.40;;;;;;;10.01;78.42;100859.48;1709903;82;22429;-88
2022/09/20 03:07:36;;;;;;;4.35;1.70;;;;;;;10.06;78.38;100866.17;1662885;84;21039;-88
2022/09/20 03:10:17;;;;;;;3.45;1.40;;;;;;;10.06;78.28;100871.44;1709642;82;22326;-88
2022/09/20 03:13:18;;;;;;;4.03;1.50;;;;;;;10.05;78.18;100868.35;1684735;84;21129;-88
2022/09/20 03:16:06;;;;;;;2.62;1.90;;;;;;;10.03;78.14;100870.05;1675048;83;21101;-88
2022/09/20 03:18:59;;;;;;;2.02;1.22;;;;;;;9.96;78.01;100865.45;1677928;83;22623;-89
2022/09/20 03:21:46;;;;;;;2.72;1.70;;;;;;;9.89;78.03;100863.97;1679664;82;21066;-89
2022/09/20 03:24:19;;;;;;;2.40;1.40;;;;;;;9.82;77.99;100866.38;1693571;83;21097;-89
2022/09/20 03:27:08;;;;;;;2.47;1.40;;;;;;;9.73;78.04;100857.77;1675685;83;21627;-88
2022/09/20 03:29:55;;;;;;;2.72;1.50;;;;;;;9.67;78.10;100861.11;1662893;83;22338;-89
2022/09/20 03:32:42;;;;;;;3.25;1.32;;;;;;;9.59;78.10;100867.87;1692409;83;21758;-88
2022/09/20 03:35:48;;;;;;;2.30;1.15;;;;;;;9.53;78.21;100866.35;1677783;83;21058;-90
2022/09/20 03:38:41;;;;;;;4.95;1.50;;;;;;;9.46;78.29;100866.60;1677692;83;21103;-89
2022/09/20 03:41:46;;;;;;;4.85;1.57;;;;;;;9.43;78.39;100866.92;1683926;82;21117;-88
2022/09/20 03:44:30;;;;;;;1.57;1.20;;;;;;;9.37;78.47;100875.50;1673456;83;21089;-89
2022/09/20 03:47:26;;;;;;;2.55;1.20;;;;;;;9.32;78.59;100880.59;1682821;83;21790;-89
2022/09/20 03:50:01;;;;;;;1.90;1.22;;;;;;;9.28;78.70;100883.97;1681040;84;21070;-88
2022/09/20 03:53:16;;;;;;;1.87;1.20;;;;;;;9.24;78.84;100883.41;1684973;83;21079;-94
2022/09/20 03:56:18;;;;;;;2.52;1.22;;;;;;;9.21;78.94;100888.55;1691579;84;21141;-95
2022/09/20 03:59:09;;;;;;;2.55;1.30;;;;;;;9.20;79.04;100893.78;1583544;88;21216;-94
2022/09/20 04:01:44;;;;;;;2.80;1.40;;;;;;;9.14;79.06;100895.35;1682265;83;21625;-96
2022/09/20 04:04:33;;;;;;;3.00;1.72;;;;;;;9.11;79.11;100894.36;1699151;83;21701;-96
2022/09/20 04:07:25;;;;;;;1.62;1.20;;;;;;;9.07;79.20;100899.92;1702960;80;21042;-95
2022/09/20 04:10:18;;;;;;;2.60;1.57;;;;;;;9.04;79.26;100898.50;1693342;83;21053;-94
2022/09/20 04:13:06;;;;;;;1.82;1.30;;;;;;;9.01;79.31;100899.73;1692095;80;21081;-87
2022/09/20 04:16:12;;;;;;;2.08;1.30;;;;;;;8.98;79.42;100898.30;1656443;83;21788;-85
2022/09/20 04:18:55;;;;;;;5.12;1.22;;;;;;;8.97;79.50;100906.12;1673125;83;21580;-85
2022/09/20 04:21:42;;;;;;;5.33;1.50;;;;;;;8.94;79.53;100900.36;1686040;83;21491;-85
2022/09/20 04:24:29;;;;;;;3.27;1.72;;;;;;;8.93;79.58;100911.68;1682956;83;21087;-86
2022/09/20 04:27:13;;;;;;;2.33;1.60;;;;;;;8.92;79.70;100913.85;1690591;83;21062;-86
2022/09/20 04:29:54;;;;;;;5.95;1.80;;;;;;;8.90;79.79;100915.11;1668553;84;21758;-89
2022/09/20 04:32:55;;;;;;;2.60;1.25;;;;;;;8.90;79.85;100916.42;1717487;81;21170;-91
2022/09/20 04:38:47;;;;;;;2.85;1.20;;;;;;;8.89;79.99;100917.67;1697141;81;21082;-88
2022/09/20 04:42:08;;;;;;;2.00;1.45;;;;;;;8.90;80.02;100915.11;1638716;84;21019;-94
2022/09/20 04:45:21;;;;;;;2.17;1.65;;;;;;;8.89;80.09;100924.23;1664717;84;21789;-94
2022/09/20 04:48:16;;;;;;;7.42;4.53;;;;;;;8.90;80.21;100924.30;1622409;86;21100;-94
2022/09/20 04:51:14;;;;;;;5.65;2.42;;;;;;;8.91;80.31;100923.86;1664053;83;21105;-94
2022/09/20 04:54:20;;;;;;;4.20;3.12;;;;;;;8.93;80.40;100924.41;1672390;84;21090;-92
2022/09/20 04:57:06;;;;;;;3.55;2.52;;;;;;;8.96;80.54;100927.55;1675465;84;21086;-94
2022/09/20 05:00:11;;;;;;;3.45;2.17;;;;;;;9.00;80.54;100932.06;1690225;83;21743;-96
2022/09/20 05:03:08;;;;;;;15.75;7.12;;;;;;;9.03;80.56;100933.88;1694485;84;21085;-95
2022/09/20 05:06:38;;;;;;;8.20;5.00;;;;;;;9.07;80.57;100937.11;1668480;83;21070;-93
2022/09/20 05:09:48;;;;;;;4.87;2.42;;;;;;;9.11;80.59;100943.82;1671838;84;21118;-94
2022/09/20 05:13:10;;;;;;;3.87;1.95;;;;;;;9.17;80.70;100940.51;1674188;84;21101;-94
2022/09/20 05:16:09;;;;;;;4.10;2.58;;;;;;;9.24;80.71;100945.13;1671042;85;23052;-93
2022/09/20 05:19:03;;;;;;;3.52;1.87;;;;;;;9.33;80.75;100941.94;1686599;84;21179;-94
2022/09/20 05:21:48;;;;;;;3.80;1.92;;;;;;;9.43;80.77;100951.00;1704673;83;21089;-95
2022/09/20 05:24:33;;;;;;;5.08;3.33;;;;;;;9.57;80.89;100955.37;1657502;85;21053;-94
2022/09/20 05:27:31;;;;;;;8.28;3.75;;;;;;;9.69;80.77;100956.67;1677199;84;21027;-95
2022/09/20 05:30:42;;;;;;;6.05;3.17;;;;;;;9.81;80.70;100956.59;1678914;83;21764;-95
2022/09/20 05:33:23;;;;;;;10.65;2.85;;;;;;;9.90;80.57;100954.25;1679599;84;21086;-94
2022/09/20 05:36:08;;;;;;;4.37;2.25;;;;;;;10.03;80.48;100955.52;1670740;84;21643;-94
2022/09/20 05:39:01;;;;;;;11.95;2.87;;;;;;;10.11;80.42;100961.46;1672543;84;21091;-94
2022/09/20 05:41:53;;;;;;;3.60;2.12;;;;;;;10.28;80.50;100962.39;1682163;84;21169;-95
2022/09/20 05:44:46;;;;;;;3.35;2.00;;;;;;;10.52;80.56;100967.52;1670199;84;22421;-93
2022/09/20 05:47:21;;;;;;;3.05;1.90;;;;;;;10.77;80.47;100969.52;1689487;84;21731;-93
2022/09/20 05:50:19;;;;;;;3.20;1.80;;;;;;;10.99;80.21;100973.20;1669284;84;21113;-93
2022/09/20 05:52:58;;;;;;;4.12;2.12;;;;;;;11.13;79.81;100964.38;1666763;84;21607;-94
2022/09/20 05:55:42;;;;;;;8.28;2.05;;;;;;;11.19;79.33;100961.00;1670464;84;21664;-95
2022/09/20 05:58:47;;;;;;;;;;;;;;;11.20;79.01;100968.04;1673319;83;21766;-95
2022/09/20 06:01:33;;;;;;;4.40;2.20;;;;;;;11.23;78.85;100968.13;1689583;83;20234;-94
2022/09/20 06:04:21;;;;;;;6.37;4.12;;;;;;;11.28;78.78;100973.98;1686108;83;21747;-95
2022/09/20 06:07:03;;;;;;;7.37;5.37;;;;;;;11.33;78.62;100972.77;1692019;83;21042;-95
2022/09/20 06:09:37;;;;;;;7.50;5.40;;;;;;;11.44;78.64;100978.31;1701376;83;21117;-95
2022/09/20 06:12:25;;;;;;;5.42;3.70;;;;;;;11.59;78.66;100980.01;1690689;82;21747;-96
2022/09/20 06:15:04;;;;;;;7.67;4.00;;;;;;;11.78;78.51;100987.05;1693475;83;21095;-96
2022/09/20 06:17:37;;;;;;;7.67;4.62;;;;;;;12.01;78.39;100987.21;1689930;83;21101;-95
2022/09/20 06:20:24;;;;;;;3.98;2.67;;;;;;;12.33;78.46;100988.36;1699135;83;21069;-94
2022/09/20 06:22:55;;;;;;;3.58;1.95;;;;;;;12.61;78.15;100987.18;1683296;83;21013;-95
2022/09/20 06:25:41;;;;;;;3.17;2.60;;;;;;;12.89;77.72;100986.83;1694223;83;21759;-95
2022/09/20 06:28:20;;;;;;;8.55;4.53;;;;;;;13.07;77.14;100990.27;1686269;83;21061;-95
2022/09/20 06:30:49;;;;;;;3.50;2.47;;;;;;;13.18;76.86;100993.55;1675889;83;21488;-95
2022/09/20 06:33:24;;;;;;;7.55;4.53;;;;;;;13.28;76.55;100993.28;1685891;83;21418;-94
2022/09/20 06:42:33;;;;;;;3.72;2.50;;;;;;;13.58;75.78;101007.94;1684265;83;21048;-93
2022/09/20 06:45:00;;;;;;;3.90;1.98;;;;;;;13.78;75.71;101012.23;1672381;82;20996;-94
2022/09/20 06:47:27;;;;;;;3.47;2.02;;;;;;;14.01;75.63;101008.62;1694353;83;21050;-94
2022/09/20 06:49:54;;;;;;;5.28;1.92;;;;;;;14.17;75.08;101007.98;1695780;83;21026;-94
2022/09/20 06:52:21;;;;;;;5.12;1.60;;;;;;;14.30;74.79;101013.43;1675195;81;21803;-93
2022/09/20 06:54:52;;;;;;;3.35;1.60;;;;;;;14.48;74.69;101010.16;1710124;81;21065;-94
2022/09/20 06:57:23;;;;;;;3.83;1.95;;;;;;;14.61;74.27;101008.59;1704821;81;21014;-94
2022/09/20 06:59:50;;;;;;;15.93;11.85;;;;;;;14.69;73.84;101014.42;1698462;82;21022;-94
2022/09/20 07:02:16;;;;;;;3.30;2.42;;;;;;;14.75;73.62;101020.23;1669774;83;21064;-93
2022/09/20 07:04:43;;;;;;;2.45;1.85;;;;;;;14.79;73.27;101020.75;1679947;82;21813;-94
2022/09/20 07:07:14;;;;;;;6.25;4.05;;;;;;;14.82;73.03;101024.73;1711222;81;20979;-94
2022/09/20 07:09:41;;;;;;;5.15;2.58;;;;;;;14.82;72.72;101026.06;1658925;83;21472;-95
2022/09/20 07:12:10;;;;;;;3.58;2.95;;;;;;;14.83;72.49;101030.52;1684221;82;21085;-93
2022/09/20 07:14:37;;;;;;;4.65;2.47;;;;;;;14.83;72.40;101027.86;1686140;83;21081;-94
2022/09/20 07:17:04;;;;;;;5.45;3.20;;;;;;;14.82;72.16;101028.72;1694226;83;21911;-94
2022/09/20 07:19:31;;;;;;;7.97;2.30;;;;;;;14.77;71.91;101027.77;1694683;83;22202;-94
2022/09/20 07:21:58;;;;;;;3.65;2.12;;;;;;;14.62;71.76;101028.48;1702301;83;21002;-94
2022/09/20 07:24:24;;;;;;;7.25;2.20;;;;;;;14.43;71.62;101029.94;1679690;83;21047;-94
2022/09/20 07:26:59;;;;;;;4.45;2.20;;;;;;;14.24;71.68;101031.45;1681393;83;21067;-95
2022/09/20 07:29:27;;;;;;;4.00;1.80;;;;;;;14.06;71.74;101036.05;1681658;83;22599;-94
2022/09/20 07:31:54;;;;;;;5.83;1.90;;;;;;;13.77;71.88;101017.05;1696651;83;21117;-95
2022/09/20 07:34:22;;;;;;;4.35;1.47;;;;;;;13.79;72.20;101036.08;1695283;83;20975;-95
2022/09/20 07:36:50;;;;;;;4.22;2.00;;;;;;;13.77;72.37;101043.07;1682066;83;21062;-94
2022/09/20 07:39:18;;;;;;;8.10;2.05;;;;;;;13.77;72.65;101038.22;1681786;84;21117;-94
2022/09/20 07:41:47;;;;;;;4.30;1.30;;;;;;;13.83;72.85;101040.95;1696964;83;22455;-93
2022/09/20 07:44:20;;;;;;;4.28;1.87;;;;;;;13.92;72.80;101045.52;1628182;85;21453;-94
2022/09/20 07:46:51;;;;;;;5.62;1.98;;;;;;;13.99;72.95;101045.64;1675644;84;21050;-94
2022/09/20 07:49:18;;;;;;;4.15;1.72;;;;;;;14.16;73.21;101044.58;1590118;86;21116;-94
2022/09/20 07:51:45;;;;;;;4.42;1.60;;;;;;;14.38;73.18;101047.55;1632223;86;21175;-93
2022/09/20 07:54:14;;;;;;;1.55;1.22;;;;;;;14.55;73.05;101050.44;1645440;85;21760;-93
2022/09/20 07:56:41;;;;;;;1.27;1.07;;;;;;;14.61;72.29;101055.84;1650013;85;21037;-95
2022/09/20 07:59:09;;;;;;;2.83;1.12;;;;;;;14.55;71.92;101048.66;1652352;85;21078;-94
2022/09/20 08:01:36;;;;;;;3.37;0.80;;;;;;;14.62;71.87;101054.07;1650118;83;21034;-95
2022/09/20 08:04:08;;;;;;;3.83;1.00;;;;;;;14.76;71.65;101052.05;1650217;83;21070;-94
2022/09/20 08:06:37;;;;;;;1.52;0.90;;;;;;;14.93;71.41;101054.91;1678157;84;21795;-94
2022/09/20 08:09:05;;;;;;;1.47;0.88;;;;;;;15.11;71.25;101060.87;1645088;86;21673;-94
2022/09/20 08:11:33;;;;;;;1.98;0.93;;;;;;;15.24;70.57;101079.56;1645960;85;21742;-94
2022/09/20 08:14:00;;;;;;;3.30;0.98;;;;;;;15.08;69.75;101055.53;1645274;85;21519;-95
2022/09/20 08:16:27;;;;;;;3.27;0.90;;;;;;;14.93;69.37;101064.64;1645262;85;21087;-93
2022/09/20 08:19:01;;;;;;;1.98;1.15;;;;;;;14.78;69.57;101062.68;1645301;85;21747;-95
2022/09/20 08:21:31;;;;;;;;;;;;;;;14.68;69.82;101070.07;1655084;84;21405;-94
2022/09/20 08:23:59;;;;;;;1.70;1.00;;;;;;;14.62;69.87;101076.17;1622093;86;20219;-94
2022/09/20 08:26:27;;;;;;;2.12;1.12;;;;;;;14.55;69.88;101068.53;1663451;84;21086;-94
2022/09/20 08:28:56;;;;;;;3.55;1.27;;;;;;;14.51;69.82;101072.02;1645599;85;21112;-94
2022/09/20 08:31:29;;;;;;;1.10;0.85;;;;;;;14.51;69.88;101075.11;1663648;84;21733;-94
2022/09/20 08:33:56;;;;;;;1.40;0.90;;;;;;;14.54;69.76;101080.42;1664131;84;21077;-93
2022/09/20 08:36:24;;;;;;;1.52;1.02;;;;;;;14.60;69.57;101079.21;1645331;85;21112;-95
2022/09/20 08:38:52;;;;;;;1.85;1.00;;;;;;;14.67;69.32;101081.52;1644948;85;21153;-94
2022/09/20 08:41:32;;;;;;;3.87;1.00;;;;;;;14.72;69.26;101084.69;1646533;84;21063;-95
2022/09/20 08:44:13;;;;;;;0.93;0.90;;;;;;;14.75;68.76;101084.74;1652740;85;21751;-94
2022/09/20 08:46:47;;;;;;;2.40;1.05;;;;;;;14.78;68.50;101086.53;1698927;82;21050;-93
2022/09/20 08:49:20;;;;;;;3.05;1.00;;;;;;;14.84;68.18;101086.59;1690874;83;21591;-94
2022/09/20 08:51:49;;;;;;;1.55;0.90;;;;;;;14.91;68.30;101088.91;1684727;82;21094;-94
2022/09/20 08:54:15;;;;;;;2.42;1.22;;;;;;;15.02;68.26;101083.30;1704304;83;21069;-94
2022/09/20 08:56:44;;;;;;;1.82;0.70;;;;;;;15.05;68.20;101082.00;1695811;83;21795;-95
2022/09/20 08:59:19;;;;;;;1.27;0.70;;;;;;;15.13;67.97;101081.67;1694946;83;21046;-94
2022/09/20 09:01:50;;;;;;;2.17;0.90;;;;;;;15.19;67.34;101090.58;1680712;83;21066;-94
2022/09/20 09:04:20;;;;;;;1.25;0.68;;;;;;;15.16;67.02;101091.00;1688301;83;21058;-95
2022/09/20 09:06:47;;;;;;;1.87;0.90;;;;;;;15.19;66.75;101083.50;1699330;83;22281;-96
2022/09/20 09:09:26;;;;;;;3.05;1.07;;;;;;;15.15;66.45;101086.99;1662054;84;22374;-93
2022/09/20 09:11:55;;;;;;;1.37;0.90;;;;;;;15.27;66.66;101092.42;1616687;86;21053;-94
2022/09/20 09:14:48;;;;;;;3.70;1.30;;;;;;;15.47;66.67;101089.11;1634297;85;21344;-94
2022/09/20 09:17:18;;;;;;;3.60;1.30;;;;;;;15.65;66.55;101089.72;1621850;85;21818;-94
2022/09/20 09:19:49;;;;;;;3.70;1.02;;;;;;;15.81;66.17;101091.68;1629264;85;21119;-93
2022/09/20 09:22:36;;;;;;;2.58;0.88;;;;;;;15.90;65.89;101093.53;1628858;85;21803;-93
2022/09/20 09:25:15;;;;;;;3.70;1.20;;;;;;;16.20;65.94;101091.97;1619721;85;21168;-94
2022/09/20 09:28:11;;;;;;;1.47;1.00;;;;;;;16.64;65.90;101094.92;1638413;85;20995;-93
2022/09/20 09:30:44;;;;;;;5.40;3.42;;;;;;;16.77;65.28;101073.73;1619663;85;21125;-94
2022/09/20 09:33:29;;;;;;;9.58;3.62;;;;;;;16.82;64.10;101101.24;1628897;85;21145;-94
2022/09/20 09:36:06;;;;;;;1.82;1.22;;;;;;;16.74;63.43;101093.20;1645064;85;21767;-95
2022/09/20 09:38:38;;;;;;;1.60;0.80;;;;;;;16.52;62.71;101099.73;1634663;85;21115;-94
2022/09/20 09:41:09;;;;;;;2.05;0.70;;;;;;;16.32;62.45;101100.05;1647303;85;21109;-96
2022/09/20 09:43:36;;;;;;;1.20;0.88;;;;;;;16.32;62.30;101101.37;1631753;85;21087;-96
2022/09/20 09:46:23;;;;;;;1.57;0.90;;;;;;;16.36;62.91;101105.82;1632936;85;21059;-95
2022/09/20 09:49:10;;;;;;;1.00;1.00;;;;;;;16.44;62.57;101101.47;1646614;84;21766;-96
2022/09/20 09:51:42;;;;;;;5.42;3.22;;;;;;;16.39;61.72;101106.30;1636468;85;21090;-95
2022/09/20 09:54:20;;;;;;;3.72;2.00;;;;;;;16.37;61.79;101102.30;1644750;85;21091;-96
2022/09/20 09:57:28;;;;;;;5.28;1.50;;;;;;;16.39;61.99;101102.31;1661199;84;21055;-96
2022/09/20 10:00:14;;;;;;;3.75;1.55;;;;;;;16.33;61.63;101110.69;1654026;85;21174;-96
2022/09/20 10:03:02;;;;;;;1.27;0.90;;;;;;;16.12;61.57;101107.44;1648332;85;21903;-96
2022/09/20 10:05:46;;;;;;;2.33;0.80;;;;;;;16.08;61.61;101119.33;1638672;85;21131;-95
2022/09/20 10:08:35;;;;;;;;;;;;;;;16.19;61.92;101104.37;1645673;85;21107;-94
2022/09/20 10:11:27;;;;;;;1.60;1.17;;;;;;;16.55;61.82;101106.83;1644036;86;20471;-94
2022/09/20 10:14:28;;;;;;;2.92;1.20;;;;;;;17.02;62.03;101106.21;1649131;86;21185;-94
2022/09/20 10:17:18;;;;;;;3.85;1.62;;;;;;;17.14;61.25;101121.36;1646950;85;21956;-95
2022/09/20 10:20:19;;;;;;;3.60;1.42;;;;;;;16.80;61.55;101130.47;1665158;85;21558;-94
2022/09/20 10:22:55;;;;;;;4.40;1.15;;;;;;;16.39;61.60;101144.38;1602024;86;21128;-95
2022/09/20 10:25:53;;;;;;;4.12;1.20;;;;;;;16.01;62.19;101151.59;1596345;88;21125;-94
2022/09/20 10:28:47;;;;;;;3.27;1.40;;;;;;;15.70;63.23;101153.91;1614916;88;21547;-94
2022/09/20 10:31:39;;;;;;;4.67;1.10;;;;;;;15.32;63.92;101162.33;1606452;87;22004;-94
2022/09/20 10:34:38;;;;;;;2.25;1.25;;;;;;;14.97;64.47;101170.70;1593995;88;21139;-94
2022/09/20 10:37:21;;;;;;;2.87;1.07;;;;;;;14.73;65.32;101169.95;1623600;85;21097;-94
2022/09/20 10:39:56;;;;;;;2.62;1.60;;;;;;;14.64;65.94;101164.92;1611573;87;21118;-94
2022/09/20 10:45:55;;;;;;;3.37;1.30;;;;;;;14.74;66.58;101178.78;1659865;83;21762;-94
2022/09/20 10:48:32;;;;;;;2.55;1.05;;;;;;;14.87;66.77;101170.14;1661429;84;21102;-94
2022/09/20 10:51:35;;;;;;;4.72;1.40;;;;;;;14.98;67.11;101171.63;1650303;84;21073;-94
2022/09/20 10:54:16;;;;;;;2.08;1.10;;;;;;;15.26;67.37;101181.23;1687011;83;21620;-94
2022/09/20 10:56:51;;;;;;;1.35;0.95;;;;;;;15.69;67.42;101184.40;1659466;84;21686;-94
2022/09/20 10:59:23;;;;;;;3.75;1.10;;;;;;;15.99;67.37;101183.89;1699026;83;21761;-94
2022/09/20 11:02:26;;;;;;;2.15;1.02;;;;;;;16.33;67.28;101183.74;1657311;85;21074;-94
2022/09/20 11:05:01;;;;;;;3.08;1.20;;;;;;;16.63;66.98;101181.28;1690246;83;21615;-95
2022/09/20 11:07:52;;;;;;;4.45;0.88;;;;;;;16.95;66.74;101181.97;1665478;84;21435;-94
2022/09/20 11:10:35;;;;;;;4.97;1.20;;;;;;;17.05;66.01;101179.83;1676381;83;21375;-95
2022/09/20 11:13:21;;;;;;;4.03;1.50;;;;;;;17.33;65.99;101184.83;1656317;84;22580;-95
2022/09/20 11:16:08;;;;;;;2.33;1.12;;;;;;;17.51;65.58;101186.66;1707092;82;21071;-94
2022/09/20 11:18:59;;;;;;;2.12;1.20;;;;;;;17.64;65.14;101185.84;1658272;84;21079;-95
2022/09/20 11:21:35;;;;;;;1.67;1.20;;;;;;;17.77;64.54;101189.39;1680941;83;21158;-94
2022/09/20 11:24:34;;;;;;;0.80;0.80;;;;;;;17.91;64.04;101186.81;1701908;83;21111;-94
2022/09/20 11:27:20;;;;;;;3.27;1.30;;;;;;;17.96;63.65;101186.39;1671797;84;22618;-95
2022/09/20 11:30:12;;;;;;;1.20;1.10;;;;;;;17.85;63.07;101191.69;1675669;85;21077;-94
2022/09/20 11:33:23;;;;;;;4.55;3.85;;;;;;;17.77;63.64;101186.73;1659628;85;21102;-94
2022/09/20 11:35:57;;;;;;;2.95;2.02;;;;;;;17.74;63.40;101187.20;1644105;85;21070;-94
2022/09/20 11:38:49;;;;;;;2.45;1.32;;;;;;;17.95;63.51;101183.27;1655964;84;21500;-94
2022/09/20 11:41:24;;;;;;;2.75;1.20;;;;;;;18.13;63.62;101190.41;1639030;84;21789;-95
2022/09/20 11:43:49;;;;;;;2.65;1.67;;;;;;;18.28;62.66;101192.16;1651547;85;20944;-94
2022/09/20 11:46:40;;;;;;;2.87;1.40;;;;;;;18.21;62.25;101201.94;1642658;85;21120;-95
2022/09/20 11:49:26;;;;;;;2.37;1.52;;;;;;;17.94;61.77;101205.89;1547440;90;21170;-94
2022/09/20 11:52:22;;;;;;;3.05;1.87;;;;;;;17.59;61.52;101201.35;1518716;92;21122;-94
2022/09/20 11:55:27;;;;;;;1.95;1.35;;;;;;;17.28;61.56;101216.72;1530256;91;21875;-94
2022/09/20 11:58:11;;;;;;;3.62;1.60;;;;;;;16.74;61.89;101215.92;1550260;90;21133;-95
2022/09/20 12:00:40;;;;;;;4.67;1.90;;;;;;;16.25;62.57;101218.62;1601366;89;21129;-94
2022/09/20 12:03:29;;;;;;;3.30;2.10;;;;;;;15.95;63.02;101220.55;1598298;88;21367;-95
2022/09/20 12:06:07;;;;;;;2.52;1.87;;;;;;;15.83;63.31;101219.11;1612487;88;21666;-95
2022/09/20 12:08:38;;;;;;;2.72;1.57;;;;;;;15.93;63.37;101227.20;1597404;87;21819;-95
2022/09/20 12:11:11;;;;;;;2.77;2.00;;;;;;;16.08;63.84;101228.21;1633958;86;21081;-95
2022/09/20 12:13:40;;;;;;;2.20;1.50;;;;;;;16.18;63.35;101226.11;1593083;87;21124;-94
2022/09/20 12:16:14;;;;;;;1.98;1.25;;;;;;;16.02;63.00;101229.48;1627122;87;21320;-93
2022/09/20 12:18:55;;;;;;;1.85;1.32;;;;;;;15.84;62.97;101239.05;1600517;87;21188;-94
2022/09/20 12:21:22;;;;;;;2.50;1.52;;;;;;;15.69;63.36;101231.76;1632089;86;22573;-93
2022/09/20 12:24:00;;;;;;;2.47;1.20;;;;;;;15.58;63.91;101247.08;1676913;83;21047;-93
2022/09/20 12:26:39;;;;;;;2.85;1.32;;;;;;;15.43;64.03;101247.77;1707763;83;21055;-94
2022/09/20 12:29:33;;;;;;;4.00;1.40;;;;;;;15.33;64.54;101244.11;1708118;83;21130;-94
2022/09/20 12:32:00;;;;;;;1.95;1.32;;;;;;;15.38;64.89;101249.49;1708060;83;21104;-93
2022/09/20 12:34:35;;;;;;;2.45;1.30;;;;;;;15.41;64.72;101252.16;1708084;82;21084;-94
2022/09/20 12:37:09;;;;;;;5.25;3.65;;;;;;;15.29;64.55;101252.90;1708318;83;29490;-94
2022/09/20 12:39:41;;;;;;;4.78;1.47;;;;;;;15.23;64.65;101255.03;1707445;82;21126;-94
2022/09/20 12:42:16;;;;;;;4.17;3.20;;;;;;;15.12;64.11;101249.57;1708476;82;21137;-94
2022/09/20 12:45:03;;;;;;;2.12;1.72;;;;;;;14.99;64.19;101256.01;1732392;82;21071;-94
2022/09/20 12:47:33;;;;;;;4.58;3.45;;;;;;;14.92;64.58;101253.69;1674701;83;22615;-94
2022/09/20 12:52:56;;;;;;;1.72;1.32;;;;;;;14.80;65.16;101254.39;1660677;84;20987;-95
2022/09/20 12:55:39;;;;;;;2.12;1.60;;;;;;;14.81;65.57;101251.30;1674049;84;21157;-94
2022/09/20 12:58:14;;;;;;;1.45;1.15;;;;;;;14.84;65.70;101249.59;1666060;84;21110;-95